Time,TemperatureF,DewpointF,PressureIn,WindDirection,WindDirectionDegrees,WindSpeedMPH,WindSpeedGustMPH,Humidity,HourlyPrecipIn,Conditions,Clouds,dailyrainin,SoftwareType,DateUTC
2013-09-16 00:01:00,61.0,59.0,30.14,WSW,242,0.0,0.0,93,0.00,,---,0.01,VWS V14.00,2013-09-16 04:01:00,
2013-09-16 00:06:00,60.9,58.9,30.14,WSW,242,0.0,0.0,93,0.00,,---,0.01,VWS V14.00,2013-09-16 04:06:00,
2013-09-16 00:11:00,60.9,59.2,30.13,WSW,242,0.0,0.0,94,0.00,,---,0.00,VWS V14.00,2013-09-16 04:11:00,
2013-09-16 00:16:00,60.8,59.1,30.13,WSW,242,0.0,0.0,94,0.00,,---,0.00,VWS V14.00,2013-09-16 04:16:00,
2013-09-16 00:21:00,60.7,59.0,30.14,WSW,242,0.0,0.0,94,0.00,,---,0.00,VWS V14.00,2013-09-16 04:21:00,
2013-09-16 00:26:00,60.6,58.9,30.14,WSW,242,0.0,0.0,94,0.00,,---,0.00,VWS V14.00,2013-09-16 04:26:00,
2013-09-16 00:31:00,60.6,58.9,30.14,WSW,242,1.0,1.0,94,0.00,,---,0.00,VWS V14.00,2013-09-16 04:31:00,
2013-09-16 00:36:00,60.5,58.8,30.14,WSW,242,0.0,1.0,94,0.00,,---,0.00,VWS V14.00,2013-09-16 04:36:00,
2013-09-16 00:41:00,60.4,58.7,30.14,WSW,242,0.0,0.0,94,0.00,,---,0.00,VWS V14.00,2013-09-16 04:41:00,
2013-09-16 00:46:00,60.4,59.0,30.14,WSW,242,0.0,0.0,95,0.00,,---,0.00,VWS V14.00,2013-09-16 04:46:00,
2013-09-16 00:51:00,60.3,58.9,30.13,WSW,242,0.0,0.0,95,0.00,,---,0.00,VWS V14.00,2013-09-16 04:51:00,
2013-09-16 00:56:00,60.2,58.8,30.13,WSW,242,0.0,0.0,95,0.00,,---,0.00,VWS V14.00,2013-09-16 04:56:00,
2013-09-16 01:01:00,60.2,58.8,30.13,WSW,242,0.0,0.0,95,0.00,,---,0.00,VWS V14.00,2013-09-16 05:01:00,
2013-09-16 01:06:00,60.1,58.7,30.13,WSW,242,0.0,0.0,95,0.00,,---,0.00,VWS V14.00,2013-09-16 05:06:00,
2013-09-16 01:11:00,60.3,59.2,30.13,WNW,303,2.0,3.0,96,0.00,,---,0.00,VWS V14.00,2013-09-16 05:11:00,
2013-09-16 01:16:00,60.5,59.4,30.13,NNW,345,0.0,3.0,96,0.00,,---,0.00,VWS V14.00,2013-09-16 05:16:00,
2013-09-16 01:21:00,60.6,59.5,30.14,NNW,345,0.0,3.0,96,0.00,,---,0.00,VWS V14.00,2013-09-16 05:21:00,
2013-09-16 01:26:00,60.6,59.5,30.13,NNW,345,0.0,3.0,96,0.00,,---,0.00,VWS V14.00,2013-09-16 05:26:00,
2013-09-16 01:31:00,60.5,59.4,30.13,NNW,345,0.0,3.0,96,0.00,,---,0.00,VWS V14.00,2013-09-16 05:31:00,
2013-09-16 01:36:00,60.5,59.4,30.14,NNW,345,0.0,3.0,96,0.00,,---,0.00,VWS V14.00,2013-09-16 05:36:00,
2013-09-16 01:41:00,60.4,59.3,30.14,NNW,345,0.0,0.0,96,0.00,,---,0.00,VWS V14.00,2013-09-16 05:41:00,
2013-09-16 01:46:00,60.4,59.3,30.14,NNW,345,0.0,0.0,96,0.00,,---,0.00,VWS V14.00,2013-09-16 05:46:00,
2013-09-16 01:51:00,60.4,59.3,30.14,NNW,345,0.0,0.0,96,0.00,,---,0.00,VWS V14.00,2013-09-16 05:51:00,
2013-09-16 01:56:00,60.4,59.3,30.14,NNW,345,0.0,0.0,96,0.00,,---,0.00,VWS V14.00,2013-09-16 05:56:00,
2013-09-16 02:01:00,60.4,59.3,30.13,NNW,345,0.0,0.0,96,0.00,,---,0.00,VWS V14.00,2013-09-16 06:01:00,
2013-09-16 02:06:00,60.3,59.2,30.14,NNW,345,0.0,0.0,96,0.00,,---,0.00,VWS V14.00,2013-09-16 06:06:00,
2013-09-16 02:11:00,60.3,59.2,30.13,NNW,345,0.0,0.0,96,0.00,,---,0.00,VWS V14.00,2013-09-16 06:11:00,
2013-09-16 02:16:00,60.2,59.1,30.13,NNW,345,0.0,0.0,96,0.00,,---,0.00,VWS V14.00,2013-09-16 06:16:00,
2013-09-16 02:21:00,60.2,59.1,30.13,NNW,345,0.0,0.0,96,0.00,,---,0.00,VWS V14.00,2013-09-16 06:21:00,
2013-09-16 02:26:00,60.1,59.0,30.13,NNW,345,0.0,0.0,96,0.00,,---,0.00,VWS V14.00,2013-09-16 06:26:00,
2013-09-16 02:31:00,60.1,59.0,30.13,NNW,345,0.0,0.0,96,0.00,,---,0.00,VWS V14.00,2013-09-16 06:31:00,
2013-09-16 02:36:00,60.1,59.0,30.13,NNW,345,0.0,0.0,96,0.00,,---,0.00,VWS V14.00,2013-09-16 06:36:00,
2013-09-16 02:41:00,60.0,59.2,30.13,NNW,345,0.0,0.0,97,0.00,,---,0.00,VWS V14.00,2013-09-16 06:41:00,
2013-09-16 02:46:00,60.0,58.9,30.13,NNW,345,0.0,0.0,96,0.00,,---,0.00,VWS V14.00,2013-09-16 06:46:00,
2013-09-16 02:51:00,59.9,58.8,30.13,NNW,345,0.0,0.0,96,0.00,,---,0.00,VWS V14.00,2013-09-16 06:51:00,
2013-09-16 02:55:00,59.8,58.7,30.13,NNW,345,0.0,0.0,96,0.00,,---,0.00,VWS V14.00,2013-09-16 06:55:00,
2013-09-16 03:00:00,59.7,58.6,30.12,NNW,345,0.0,0.0,96,0.00,,---,0.00,VWS V14.00,2013-09-16 07:00:00,
2013-09-16 03:05:00,59.7,58.6,30.12,NNW,345,0.0,0.0,96,0.00,,---,0.00,VWS V14.00,2013-09-16 07:05:00,
2013-09-16 03:10:00,59.6,58.5,30.12,NNW,345,0.0,0.0,96,0.00,,---,0.00,VWS V14.00,2013-09-16 07:10:00,
2013-09-16 03:15:00,59.6,58.8,30.12,NNW,345,0.0,0.0,97,0.00,,---,0.00,VWS V14.00,2013-09-16 07:15:00,
2013-09-16 03:20:00,59.6,58.8,30.12,NNW,345,0.0,0.0,97,0.00,,---,0.00,VWS V14.00,2013-09-16 07:20:00,
2013-09-16 03:25:00,59.5,58.7,30.12,NNW,345,0.0,0.0,97,0.00,,---,0.00,VWS V14.00,2013-09-16 07:25:00,
2013-09-16 03:30:00,59.5,58.7,30.12,NNW,345,0.0,0.0,97,0.00,,---,0.00,VWS V14.00,2013-09-16 07:30:00,
2013-09-16 03:35:00,59.5,58.7,30.12,NNW,345,0.0,0.0,97,0.00,,---,0.00,VWS V14.00,2013-09-16 07:35:00,
2013-09-16 03:40:00,59.4,58.5,30.12,NNW,345,0.0,0.0,97,0.00,,---,0.00,VWS V14.00,2013-09-16 07:40:00,
2013-09-16 03:45:00,59.4,58.5,30.12,NNW,345,0.0,0.0,97,0.00,,---,0.00,VWS V14.00,2013-09-16 07:45:00,
2013-09-16 03:50:00,59.4,58.5,30.12,NNW,345,0.0,0.0,97,0.00,,---,0.00,VWS V14.00,2013-09-16 07:50:00,
2013-09-16 03:55:00,59.3,58.5,30.12,NNW,345,0.0,0.0,97,0.00,,---,0.00,VWS V14.00,2013-09-16 07:55:00,
2013-09-16 04:00:00,59.2,58.3,30.11,NNW,345,0.0,0.0,97,0.00,,---,0.00,VWS V14.00,2013-09-16 08:00:00,
2013-09-16 04:05:00,59.0,58.2,30.11,NNW,345,0.0,0.0,97,0.00,,---,0.00,VWS V14.00,2013-09-16 08:05:00,
2013-09-16 04:10:00,59.0,58.2,30.11,NNW,345,0.0,0.0,97,0.00,,---,0.00,VWS V14.00,2013-09-16 08:10:00,
2013-09-16 04:15:00,59.0,58.2,30.11,NNW,345,0.0,0.0,97,0.00,,---,0.00,VWS V14.00,2013-09-16 08:15:00,
2013-09-16 04:20:00,59.0,58.2,30.11,NNW,345,0.0,0.0,97,0.00,,---,0.00,VWS V14.00,2013-09-16 08:20:00,
2013-09-16 04:25:00,59.0,58.2,30.11,NNW,345,0.0,0.0,97,0.00,,---,0.00,VWS V14.00,2013-09-16 08:25:00,
2013-09-16 04:30:00,59.0,58.2,30.12,NNW,345,0.0,0.0,97,0.00,,---,0.00,VWS V14.00,2013-09-16 08:30:00,
2013-09-16 04:35:00,59.0,58.2,30.11,NNW,345,0.0,0.0,97,0.00,,---,0.00,VWS V14.00,2013-09-16 08:35:00,
2013-09-16 04:40:00,59.0,58.2,30.11,NNW,345,0.0,0.0,97,0.00,,---,0.00,VWS V14.00,2013-09-16 08:40:00,
2013-09-16 04:45:00,59.0,58.2,30.11,NNW,345,0.0,0.0,97,0.00,,---,0.00,VWS V14.00,2013-09-16 08:45:00,
2013-09-16 04:50:00,59.0,58.2,30.11,NNW,345,0.0,0.0,97,0.00,,---,0.00,VWS V14.00,2013-09-16 08:50:00,
2013-09-16 04:55:00,59.0,58.2,30.11,NNW,345,0.0,0.0,97,0.00,,---,0.00,VWS V14.00,2013-09-16 08:55:00,
2013-09-16 05:00:00,59.0,58.2,30.11,NNW,345,0.0,0.0,97,0.00,,---,0.00,VWS V14.00,2013-09-16 09:00:00,
2013-09-16 05:05:00,59.0,58.4,30.11,NNW,345,0.0,0.0,98,0.00,,---,0.00,VWS V14.00,2013-09-16 09:05:00,
2013-09-16 05:10:00,59.0,58.4,30.14,NNW,345,0.0,0.0,98,0.00,,---,0.00,VWS V14.00,2013-09-16 09:10:00,
2013-09-16 05:15:00,59.0,58.4,30.14,NNW,345,0.0,0.0,98,0.00,,---,0.00,VWS V14.00,2013-09-16 09:15:00,
2013-09-16 05:20:00,59.0,58.4,30.14,NNW,345,0.0,1.0,98,0.00,,---,0.00,VWS V14.00,2013-09-16 09:20:00,
2013-09-16 05:25:00,58.9,58.0,30.14,NNW,345,0.0,1.0,97,0.00,,---,0.00,VWS V14.00,2013-09-16 09:25:00,
2013-09-16 05:30:00,58.7,57.8,30.14,NNW,345,0.0,1.0,97,0.00,,---,0.00,VWS V14.00,2013-09-16 09:30:00,
2013-09-16 05:35:00,58.5,57.7,30.14,NNW,345,0.0,1.0,97,0.00,,---,0.00,VWS V14.00,2013-09-16 09:35:00,
2013-09-16 05:40:00,58.4,57.6,30.14,NNW,345,0.0,0.0,97,0.00,,---,0.00,VWS V14.00,2013-09-16 09:40:00,
2013-09-16 05:45:00,58.3,57.5,30.14,NNW,345,0.0,0.0,97,0.00,,---,0.00,VWS V14.00,2013-09-16 09:45:00,
2013-09-16 05:50:00,58.2,57.4,30.14,NNW,345,0.0,0.0,97,0.00,,---,0.00,VWS V14.00,2013-09-16 09:50:00,
2013-09-16 05:55:00,58.2,57.4,30.14,NNW,345,0.0,0.0,97,0.00,,---,0.00,VWS V14.00,2013-09-16 09:55:00,
2013-09-16 06:00:00,58.2,57.4,30.14,NNW,345,0.0,0.0,97,0.00,,---,0.00,VWS V14.00,2013-09-16 10:00:00,
2013-09-16 06:05:00,58.1,57.3,30.14,NNW,345,0.0,0.0,97,0.00,,---,0.00,VWS V14.00,2013-09-16 10:05:00,
2013-09-16 06:10:00,58.1,57.3,30.15,NNW,345,0.0,0.0,97,0.00,,---,0.00,VWS V14.00,2013-09-16 10:10:00,
2013-09-16 06:15:00,58.0,57.2,30.15,NNW,345,0.0,0.0,97,0.00,,---,0.00,VWS V14.00,2013-09-16 10:15:00,
2013-09-16 06:20:00,58.0,57.2,30.15,NNW,345,0.0,0.0,97,0.00,,---,0.00,VWS V14.00,2013-09-16 10:20:00,
2013-09-16 06:25:00,58.0,57.2,30.15,NNW,345,0.0,0.0,97,0.00,,---,0.00,VWS V14.00,2013-09-16 10:25:00,
2013-09-16 06:30:00,57.9,57.3,30.15,NNW,345,0.0,0.0,98,0.00,,---,0.00,VWS V14.00,2013-09-16 10:30:00,
2013-09-16 06:35:00,57.9,57.3,30.15,NNW,345,0.0,0.0,98,0.00,,---,0.00,VWS V14.00,2013-09-16 10:35:00,
2013-09-16 06:40:00,57.8,57.2,30.15,NNW,345,0.0,0.0,98,0.00,,---,0.00,VWS V14.00,2013-09-16 10:40:00,
2013-09-16 06:45:00,57.8,57.2,30.16,NNW,345,0.0,0.0,98,0.00,,---,0.00,VWS V14.00,2013-09-16 10:45:00,
2013-09-16 06:50:00,57.7,57.1,30.16,NNW,345,0.0,0.0,98,0.00,,---,0.00,VWS V14.00,2013-09-16 10:50:00,
2013-09-16 06:55:00,57.7,57.1,30.16,NNW,345,0.0,0.0,98,0.00,,---,0.00,VWS V14.00,2013-09-16 10:55:00,
2013-09-16 07:00:00,57.5,56.7,30.16,NNW,345,0.0,0.0,97,0.00,,---,0.00,VWS V14.00,2013-09-16 11:00:00,
2013-09-16 07:05:00,57.4,56.6,30.16,NNW,345,0.0,0.0,97,0.00,,---,0.00,VWS V14.00,2013-09-16 11:05:00,
2013-09-16 07:10:00,57.3,56.7,30.17,NNW,345,0.0,0.0,98,0.00,,---,0.00,VWS V14.00,2013-09-16 11:10:00,
2013-09-16 07:15:00,57.2,56.6,30.17,NNW,345,0.0,0.0,98,0.00,,---,0.00,VWS V14.00,2013-09-16 11:15:00,
2013-09-16 07:20:00,57.1,56.5,30.17,NNW,345,0.0,0.0,98,0.00,,---,0.00,VWS V14.00,2013-09-16 11:20:00,
2013-09-16 07:25:00,57.0,56.4,30.17,NNW,345,0.0,0.0,98,0.00,,---,0.00,VWS V14.00,2013-09-16 11:25:00,
2013-09-16 07:30:00,56.8,56.0,30.17,NNW,345,0.0,0.0,97,0.00,,---,0.00,VWS V14.00,2013-09-16 11:30:00,
2013-09-16 07:35:00,56.8,56.0,30.17,NNW,345,0.0,0.0,97,0.00,,---,0.00,VWS V14.00,2013-09-16 11:35:00,
2013-09-16 07:40:00,56.7,55.9,30.17,NNW,345,0.0,0.0,97,0.00,,---,0.00,VWS V14.00,2013-09-16 11:40:00,
2013-09-16 07:45:00,56.7,56.1,30.17,NNW,345,0.0,0.0,98,0.00,,---,0.00,VWS V14.00,2013-09-16 11:45:00,
2013-09-16 07:50:00,56.8,56.2,30.17,NNW,345,0.0,0.0,98,0.00,,---,0.00,VWS V14.00,2013-09-16 11:50:00,
2013-09-16 07:55:00,56.8,56.2,30.17,NNW,345,0.0,0.0,98,0.00,,---,0.00,VWS V14.00,2013-09-16 11:55:00,
2013-09-16 08:00:00,56.8,56.2,30.17,NNW,345,0.0,0.0,98,0.00,,---,0.00,VWS V14.00,2013-09-16 12:00:00,
2013-09-16 08:05:00,56.8,56.2,30.17,NNW,345,0.0,0.0,98,0.00,,---,0.00,VWS V14.00,2013-09-16 12:05:00,
2013-09-16 08:10:00,56.9,56.3,30.18,NNW,345,0.0,0.0,98,0.00,,---,0.00,VWS V14.00,2013-09-16 12:10:00,
2013-09-16 08:15:00,56.9,56.3,30.18,NNW,345,0.0,0.0,98,0.00,,---,0.00,VWS V14.00,2013-09-16 12:15:00,
2013-09-16 08:20:00,56.9,56.3,30.18,NNW,345,0.0,0.0,98,0.00,,---,0.00,VWS V14.00,2013-09-16 12:20:00,
2013-09-16 08:25:00,57.0,56.4,30.18,NNW,345,0.0,0.0,98,0.00,,---,0.00,VWS V14.00,2013-09-16 12:25:00,
2013-09-16 08:30:00,57.2,56.6,30.18,NNW,345,0.0,0.0,98,0.00,,---,0.00,VWS V14.00,2013-09-16 12:30:00,
2013-09-16 08:35:00,57.3,56.7,30.18,NNW,345,0.0,0.0,98,0.00,,---,0.00,VWS V14.00,2013-09-16 12:35:00,
2013-09-16 08:40:00,57.5,56.9,30.18,NNW,345,0.0,0.0,98,0.00,,---,0.00,VWS V14.00,2013-09-16 12:40:00,
2013-09-16 08:45:00,57.5,56.9,30.18,NNW,345,0.0,0.0,98,0.00,,---,0.00,VWS V14.00,2013-09-16 12:45:00,
2013-09-16 08:50:00,57.6,57.0,30.18,NNW,345,0.0,0.0,98,0.00,,---,0.00,VWS V14.00,2013-09-16 12:50:00,
2013-09-16 08:55:00,57.7,57.1,30.18,NNW,345,0.0,0.0,98,0.00,,---,0.00,VWS V14.00,2013-09-16 12:55:00,
2013-09-16 09:00:00,58.1,57.8,30.18,NNW,345,0.0,0.0,99,0.00,,---,0.00,VWS V14.00,2013-09-16 13:00:00,
2013-09-16 09:05:00,58.6,58.3,30.18,NNW,345,0.0,0.0,99,0.00,,---,0.00,VWS V14.00,2013-09-16 13:05:00,
2013-09-16 09:10:00,59.1,58.8,30.19,NNW,345,0.0,0.0,99,0.00,,---,0.00,VWS V14.00,2013-09-16 13:10:00,
2013-09-16 09:15:00,59.7,59.4,30.18,NNW,345,0.0,0.0,99,0.00,,---,0.00,VWS V14.00,2013-09-16 13:15:00,
2013-09-16 09:20:00,60.1,59.8,30.18,NNW,345,0.0,0.0,99,0.00,,---,0.00,VWS V14.00,2013-09-16 13:20:00,
2013-09-16 09:25:00,60.2,59.9,30.18,NNW,345,0.0,0.0,99,0.00,,---,0.00,VWS V14.00,2013-09-16 13:25:00,
2013-09-16 09:30:00,60.1,59.8,30.17,NNW,345,0.0,0.0,99,0.00,,---,0.00,VWS V14.00,2013-09-16 13:30:00,
2013-09-16 09:35:00,60.2,59.9,30.17,NNW,345,0.0,0.0,99,0.00,,---,0.00,VWS V14.00,2013-09-16 13:35:00,
2013-09-16 09:40:00,60.0,59.7,30.17,NNW,345,0.0,0.0,99,0.00,,---,0.00,VWS V14.00,2013-09-16 13:40:00,
2013-09-16 09:45:00,59.9,59.6,30.17,NNW,345,0.0,0.0,99,0.00,,---,0.00,VWS V14.00,2013-09-16 13:45:00,
2013-09-16 09:50:00,60.0,59.7,30.17,NNW,345,0.0,0.0,99,0.00,,---,0.00,VWS V14.00,2013-09-16 13:50:00,
2013-09-16 09:55:00,60.1,59.8,30.17,SE,125,0.0,1.0,99,0.00,,---,0.00,VWS V14.00,2013-09-16 13:55:00,
2013-09-16 10:00:00,60.2,59.9,30.17,ESE,121,0.0,1.0,99,0.00,,---,0.00,VWS V14.00,2013-09-16 14:00:00,
2013-09-16 10:05:00,60.3,60.0,30.17,ESE,121,0.0,1.0,99,0.00,,---,0.00,VWS V14.00,2013-09-16 14:05:00,
2013-09-16 10:10:00,60.4,60.1,30.18,ESE,121,0.0,0.0,99,0.00,,---,0.00,VWS V14.00,2013-09-16 14:10:00,
2013-09-16 10:15:00,60.5,60.2,30.18,ESE,121,0.0,1.0,99,0.00,,---,0.00,VWS V14.00,2013-09-16 14:15:00,
2013-09-16 10:20:00,60.6,60.3,30.19,ESE,121,0.0,1.0,99,0.00,,---,0.00,VWS V14.00,2013-09-16 14:20:00,
2013-09-16 10:25:00,60.8,60.5,30.18,ESE,121,0.0,1.0,99,0.00,,---,0.00,VWS V14.00,2013-09-16 14:25:00,
2013-09-16 10:30:00,60.9,60.3,30.18,ESE,121,0.0,1.0,98,0.00,,---,0.00,VWS V14.00,2013-09-16 14:30:00,
2013-09-16 10:35:00,61.0,60.4,30.18,ESE,121,0.0,1.0,98,0.00,,---,0.00,VWS V14.00,2013-09-16 14:35:00,
2013-09-16 10:40:00,61.1,60.8,30.18,ESE,121,0.0,1.0,99,0.00,,---,0.00,VWS V14.00,2013-09-16 14:40:00,
2013-09-16 10:45:00,61.5,61.2,30.18,ESE,121,0.0,1.0,99,0.00,,---,0.00,VWS V14.00,2013-09-16 14:45:00,
2013-09-16 10:50:00,61.8,61.5,30.17,SE,132,0.0,1.0,99,0.00,,---,0.00,VWS V14.00,2013-09-16 14:50:00,
2013-09-16 10:55:00,62.3,62.0,30.17,SE,132,0.0,1.0,99,0.00,,---,0.00,VWS V14.00,2013-09-16 14:55:00,
2013-09-16 11:00:00,63.2,62.9,30.17,SE,132,0.0,1.0,99,0.00,,---,0.00,VWS V14.00,2013-09-16 15:00:00,
2013-09-16 11:05:00,64.0,63.7,30.17,SE,132,0.0,1.0,99,0.00,,---,0.00,VWS V14.00,2013-09-16 15:05:00,
2013-09-16 11:10:00,64.5,63.9,30.17,SE,132,0.0,1.0,98,0.00,,---,0.00,VWS V14.00,2013-09-16 15:10:00,
2013-09-16 11:15:00,65.4,64.5,30.16,SE,136,0.0,1.0,97,0.00,,---,0.00,VWS V14.00,2013-09-16 15:15:00,
2013-09-16 11:20:00,66.6,65.4,30.16,SSE,159,0.0,3.0,96,0.00,,---,0.00,VWS V14.00,2013-09-16 15:20:00,
2013-09-16 11:25:00,67.5,65.7,30.16,SSE,157,0.0,3.0,94,0.00,,---,0.00,VWS V14.00,2013-09-16 15:25:00,
2013-09-16 11:30:00,68.0,65.3,30.16,SSE,157,0.0,3.0,91,0.00,,---,0.00,VWS V14.00,2013-09-16 15:30:00,
2013-09-16 11:35:00,68.6,65.6,30.15,SSE,159,1.0,3.0,90,0.00,,---,0.00,VWS V14.00,2013-09-16 15:35:00,
2013-09-16 11:39:00,69.4,66.0,30.15,SSE,159,0.0,1.0,89,0.00,,---,0.00,VWS V14.00,2013-09-16 15:39:00,
2013-09-16 11:44:00,70.1,65.7,30.15,SSE,159,0.0,1.0,86,0.00,,---,0.00,VWS V14.00,2013-09-16 15:44:00,
2013-09-16 11:49:00,70.7,65.6,30.14,SSE,159,0.0,1.0,84,0.00,,---,0.00,VWS V14.00,2013-09-16 15:49:00,
2013-09-16 11:54:00,71.4,66.3,30.14,SSE,158,0.0,1.0,84,0.00,,---,0.00,VWS V14.00,2013-09-16 15:54:00,
2013-09-16 11:59:00,72.4,66.9,30.14,SSE,157,0.0,1.0,83,0.00,,---,0.00,VWS V14.00,2013-09-16 15:59:00,
2013-09-16 12:04:00,73.5,67.3,30.14,SSE,157,0.0,1.0,81,0.00,,---,0.00,VWS V14.00,2013-09-16 16:04:00,
2013-09-16 12:09:00,74.0,67.1,30.14,SSE,157,0.0,0.0,79,0.00,,---,0.00,VWS V14.00,2013-09-16 16:09:00,
2013-09-16 12:14:00,74.5,67.6,30.14,SSE,158,0.0,1.0,79,0.00,,---,0.00,VWS V14.00,2013-09-16 16:14:00,
2013-09-16 12:19:00,75.3,68.3,30.14,SSE,156,0.0,3.0,79,0.00,,---,0.00,VWS V14.00,2013-09-16 16:19:00,
2013-09-16 12:24:00,76.3,67.8,30.13,East,88,0.0,3.0,75,0.00,,---,0.00,VWS V14.00,2013-09-16 16:24:00,
2013-09-16 12:29:00,77.3,69.2,30.12,East,89,0.0,3.0,76,0.00,,---,0.00,VWS V14.00,2013-09-16 16:29:00,
2013-09-16 12:34:00,77.4,66.0,30.13,South,185,0.0,3.0,68,0.00,,---,0.00,VWS V14.00,2013-09-16 16:34:00,
2013-09-16 12:39:00,78.0,67.4,30.12,SSE,155,0.0,5.0,70,0.00,,---,0.00,VWS V14.00,2013-09-16 16:39:00,
2013-09-16 12:44:00,78.0,65.3,30.12,South,183,0.0,7.0,65,0.00,,---,0.00,VWS V14.00,2013-09-16 16:44:00,
2013-09-16 12:49:00,78.2,65.0,30.12,SW,229,1.0,7.0,64,0.00,,---,0.00,VWS V14.00,2013-09-16 16:49:00,
2013-09-16 12:54:00,78.7,68.1,30.12,ESE,122,0.0,7.0,70,0.00,,---,0.00,VWS V14.00,2013-09-16 16:54:00,
2013-09-16 12:59:00,79.0,64.4,30.12,SW,225,0.0,7.0,61,0.00,,---,0.00,VWS V14.00,2013-09-16 16:59:00,
2013-09-16 13:04:00,79.3,65.6,30.12,ENE,78,0.0,7.0,63,0.00,,---,0.00,VWS V14.00,2013-09-16 17:04:00,
2013-09-16 13:09:00,79.5,67.2,30.11,SSE,150,0.0,1.0,66,0.00,,---,0.00,VWS V14.00,2013-09-16 17:09:00,
2013-09-16 13:14:00,79.3,66.5,30.12,SSE,154,5.0,7.0,65,0.00,,---,0.00,VWS V14.00,2013-09-16 17:14:00,
2013-09-16 13:19:00,78.3,64.7,30.12,ESE,117,1.0,8.0,63,0.00,,---,0.00,VWS V14.00,2013-09-16 17:19:00,
2013-09-16 13:24:00,78.3,63.3,30.12,SSE,151,1.0,8.0,60,0.00,,---,0.00,VWS V14.00,2013-09-16 17:24:00,
2013-09-16 13:29:00,78.5,65.3,30.11,ESE,113,2.0,8.0,64,0.00,,---,0.00,VWS V14.00,2013-09-16 17:29:00,
2013-09-16 13:34:00,78.7,63.7,30.12,South,189,0.0,8.0,60,0.00,,---,0.00,VWS V14.00,2013-09-16 17:34:00,
2013-09-16 13:39:00,79.0,65.8,30.11,ESE,123,0.0,1.0,64,0.00,,---,0.00,VWS V14.00,2013-09-16 17:39:00,
2013-09-16 13:44:00,79.2,65.5,30.11,SE,145,3.0,5.0,63,0.00,,---,0.00,VWS V14.00,2013-09-16 17:44:00,
2013-09-16 13:49:00,79.1,64.5,30.11,SSE,164,0.0,5.0,61,0.00,,---,0.00,VWS V14.00,2013-09-16 17:49:00,
2013-09-16 13:54:00,79.8,65.2,30.11,ENE,65,0.0,5.0,61,0.00,,---,0.00,VWS V14.00,2013-09-16 17:54:00,
2013-09-16 13:59:00,80.2,64.6,30.10,SE,126,1.0,5.0,59,0.00,,---,0.00,VWS V14.00,2013-09-16 17:59:00,
2013-09-16 14:04:00,79.9,64.3,30.10,South,178,0.0,5.0,59,0.00,,---,0.00,VWS V14.00,2013-09-16 18:04:00,
2013-09-16 14:09:00,79.9,64.3,30.10,SW,219,0.0,1.0,59,0.00,,---,0.00,VWS V14.00,2013-09-16 18:09:00,
2013-09-16 14:14:00,80.2,66.9,30.09,SW,214,0.0,1.0,64,0.00,,---,0.00,VWS V14.00,2013-09-16 18:14:00,
2013-09-16 14:19:00,80.6,66.4,30.09,WNW,301,0.0,4.0,62,0.00,,---,0.00,VWS V14.00,2013-09-16 18:19:00,
2013-09-16 14:24:00,81.3,66.6,30.09,NW,306,2.0,4.0,61,0.00,,---,0.00,VWS V14.00,2013-09-16 18:24:00,
2013-09-16 14:29:00,80.9,63.8,30.09,SE,134,1.0,4.0,56,0.00,,---,0.00,VWS V14.00,2013-09-16 18:29:00,
2013-09-16 14:34:00,80.8,66.1,30.09,ESE,122,0.0,4.0,61,0.00,,---,0.00,VWS V14.00,2013-09-16 18:34:00,
2013-09-16 14:39:00,80.9,62.7,30.09,WNW,293,0.0,3.0,54,0.00,,---,0.00,VWS V14.00,2013-09-16 18:39:00,
2013-09-16 14:44:00,81.0,65.3,30.08,SSW,207,0.0,3.0,59,0.00,,---,0.00,VWS V14.00,2013-09-16 18:44:00,
2013-09-16 14:49:00,80.9,65.2,30.09,SE,130,0.0,4.0,59,0.00,,---,0.00,VWS V14.00,2013-09-16 18:49:00,
2013-09-16 14:54:00,80.9,66.2,30.08,SE,125,4.0,5.0,61,0.00,,---,0.00,VWS V14.00,2013-09-16 18:54:00,
2013-09-16 14:59:00,80.8,64.2,30.08,SE,132,0.0,5.0,57,0.00,,---,0.00,VWS V14.00,2013-09-16 18:59:00,
2013-09-16 15:04:00,81.0,65.8,30.08,SSE,155,0.0,5.0,60,0.00,,---,0.00,VWS V14.00,2013-09-16 19:04:00,
2013-09-16 15:09:00,80.6,65.0,30.08,SSE,157,0.0,1.0,59,0.00,,---,0.00,VWS V14.00,2013-09-16 19:09:00,
2013-09-16 15:14:00,80.6,65.4,30.08,SSE,153,0.0,2.0,60,0.00,,---,0.00,VWS V14.00,2013-09-16 19:14:00,
2013-09-16 15:19:00,80.6,63.5,30.08,SSE,156,2.0,5.0,56,0.00,,---,0.00,VWS V14.00,2013-09-16 19:19:00,
2013-09-16 15:24:00,80.1,63.0,30.09,SSE,153,0.0,5.0,56,0.00,,---,0.00,VWS V14.00,2013-09-16 19:24:00,
2013-09-16 15:29:00,79.8,62.7,30.09,SSE,163,0.0,5.0,56,0.00,,---,0.00,VWS V14.00,2013-09-16 19:29:00,
2013-09-16 15:34:00,79.4,62.9,30.09,South,185,0.0,5.0,57,0.00,,---,0.00,VWS V14.00,2013-09-16 19:34:00,
2013-09-16 15:39:00,79.4,62.3,30.08,South,182,0.0,0.0,56,0.00,,---,0.00,VWS V14.00,2013-09-16 19:39:00,
2013-09-16 15:44:00,79.4,62.3,30.08,South,180,0.0,3.0,56,0.00,,---,0.00,VWS V14.00,2013-09-16 19:44:00,
2013-09-16 15:49:00,79.4,64.3,30.08,South,179,0.0,3.0,60,0.00,,---,0.00,VWS V14.00,2013-09-16 19:49:00,
2013-09-16 15:54:00,79.4,62.3,30.08,South,178,0.0,3.0,56,0.00,,---,0.00,VWS V14.00,2013-09-16 19:54:00,
2013-09-16 15:59:00,79.5,64.4,30.07,South,178,0.0,3.0,60,0.00,,---,0.00,VWS V14.00,2013-09-16 19:59:00,
2013-09-16 16:04:00,79.8,64.7,30.08,SE,145,0.0,4.0,60,0.00,,---,0.00,VWS V14.00,2013-09-16 20:04:00,
2013-09-16 16:09:00,80.0,65.4,30.07,South,172,0.0,2.0,61,0.00,,---,0.00,VWS V14.00,2013-09-16 20:09:00,
2013-09-16 16:14:00,79.9,65.3,30.07,SE,131,0.0,6.0,61,0.00,,---,0.00,VWS V14.00,2013-09-16 20:14:00,
2013-09-16 16:19:00,79.8,67.0,30.07,SE,145,1.0,6.0,65,0.00,,---,0.00,VWS V14.00,2013-09-16 20:19:00,
2013-09-16 16:24:00,79.3,63.7,30.08,ESE,117,2.0,6.0,59,0.00,,---,0.00,VWS V14.00,2013-09-16 20:24:00,
2013-09-16 16:29:00,79.0,63.9,30.07,SSE,153,4.0,6.0,60,0.00,,---,0.00,VWS V14.00,2013-09-16 20:29:00,
2013-09-16 16:34:00,78.7,67.3,30.07,East,91,0.0,6.0,68,0.00,,---,0.00,VWS V14.00,2013-09-16 20:34:00,
2013-09-16 16:39:00,78.7,66.8,30.07,SSE,148,0.0,2.0,67,0.00,,---,0.00,VWS V14.00,2013-09-16 20:39:00,
2013-09-16 16:44:00,78.7,68.1,30.07,SSE,147,0.0,2.0,70,0.00,,---,0.00,VWS V14.00,2013-09-16 20:44:00,
2013-09-16 16:49:00,78.5,67.1,30.07,SE,127,0.0,5.0,68,0.00,,---,0.00,VWS V14.00,2013-09-16 20:49:00,
2013-09-16 16:54:00,78.3,66.4,30.08,SE,126,0.0,5.0,67,0.00,,---,0.00,VWS V14.00,2013-09-16 20:54:00,
2013-09-16 16:59:00,77.9,65.2,30.08,SSE,150,1.0,5.0,65,0.00,,---,0.00,VWS V14.00,2013-09-16 20:59:00,
2013-09-16 17:04:00,78.0,66.2,30.08,SSE,149,0.0,5.0,67,0.00,,---,0.00,VWS V14.00,2013-09-16 21:04:00,
2013-09-16 17:09:00,78.0,66.2,30.08,SSE,149,0.0,1.0,67,0.00,,---,0.00,VWS V14.00,2013-09-16 21:09:00,
2013-09-16 17:14:00,78.0,64.8,30.08,SSE,149,0.0,1.0,64,0.00,,---,0.00,VWS V14.00,2013-09-16 21:14:00,
2013-09-16 17:19:00,78.0,65.7,30.08,SSE,149,0.0,1.0,66,0.00,,---,0.00,VWS V14.00,2013-09-16 21:19:00,
2013-09-16 17:24:00,77.6,65.8,30.08,SSE,149,0.0,1.0,67,0.00,,---,0.00,VWS V14.00,2013-09-16 21:24:00,
2013-09-16 17:29:00,77.4,66.0,30.08,SSE,149,0.0,1.0,68,0.00,,---,0.00,VWS V14.00,2013-09-16 21:29:00,
2013-09-16 17:34:00,77.3,65.5,30.08,SSE,149,0.0,1.0,67,0.00,,---,0.00,VWS V14.00,2013-09-16 21:34:00,
2013-09-16 17:39:00,77.1,65.7,30.08,SSE,149,0.0,0.0,68,0.00,,---,0.00,VWS V14.00,2013-09-16 21:39:00,
2013-09-16 17:44:00,76.9,65.1,30.08,SSE,149,0.0,0.0,67,0.00,,---,0.00,VWS V14.00,2013-09-16 21:44:00,
2013-09-16 17:49:00,76.6,65.7,30.09,SSE,149,0.0,0.0,69,0.00,,---,0.00,VWS V14.00,2013-09-16 21:49:00,
2013-09-16 17:54:00,76.1,65.6,30.09,SSE,149,0.0,0.0,70,0.00,,---,0.00,VWS V14.00,2013-09-16 21:54:00,
2013-09-16 17:59:00,75.7,64.8,30.09,SSE,149,0.0,0.0,69,0.00,,---,0.00,VWS V14.00,2013-09-16 21:59:00,
2013-09-16 18:04:00,75.4,65.3,30.09,SSE,149,0.0,0.0,71,0.00,,---,0.00,VWS V14.00,2013-09-16 22:04:00,
2013-09-16 18:09:00,75.0,65.0,30.09,SSE,149,0.0,0.0,71,0.00,,---,0.00,VWS V14.00,2013-09-16 22:09:00,
2013-09-16 18:14:00,74.6,65.0,30.09,SSE,149,0.0,0.0,72,0.00,,---,0.00,VWS V14.00,2013-09-16 22:14:00,
2013-09-16 18:19:00,74.3,65.1,30.09,SSE,149,0.0,0.0,73,0.00,,---,0.00,VWS V14.00,2013-09-16 22:19:00,
2013-09-16 18:24:00,74.0,65.2,30.10,SSE,149,0.0,0.0,74,0.00,,---,0.00,VWS V14.00,2013-09-16 22:24:00,
2013-09-16 18:29:00,73.7,65.3,30.10,SSE,149,0.0,0.0,75,0.00,,---,0.00,VWS V14.00,2013-09-16 22:29:00,
2013-09-16 18:34:00,73.5,65.9,30.10,SSE,149,0.0,0.0,77,0.00,,---,0.00,VWS V14.00,2013-09-16 22:34:00,
2013-09-16 18:39:00,73.1,65.1,30.09,SSE,149,0.0,0.0,76,0.00,,---,0.00,VWS V14.00,2013-09-16 22:39:00,
2013-09-16 18:44:00,72.8,64.8,30.10,SSE,149,0.0,0.0,76,0.00,,---,0.00,VWS V14.00,2013-09-16 22:44:00,
2013-09-16 18:49:00,72.4,64.4,30.09,SSE,149,0.0,0.0,76,0.00,,---,0.00,VWS V14.00,2013-09-16 22:49:00,
2013-09-16 18:54:00,72.1,64.5,30.10,SSE,149,2.0,2.0,77,0.00,,---,0.00,VWS V14.00,2013-09-16 22:54:00,
2013-09-16 18:59:00,71.5,64.7,30.11,SSE,150,0.0,2.0,79,0.00,,---,0.00,VWS V14.00,2013-09-16 22:59:00,
2013-09-16 19:04:00,71.2,64.7,30.11,SSE,149,0.0,2.0,80,0.00,,---,0.00,VWS V14.00,2013-09-16 23:04:00,
2013-09-16 19:09:00,70.9,64.1,30.11,SSE,150,0.0,0.0,79,0.00,,---,0.00,VWS V14.00,2013-09-16 23:09:00,
2013-09-16 19:14:00,70.6,63.8,30.11,SSE,150,0.0,0.0,79,0.00,,---,0.00,VWS V14.00,2013-09-16 23:14:00,
2013-09-16 19:19:00,70.3,63.5,30.11,SSE,149,0.0,0.0,79,0.00,,---,0.00,VWS V14.00,2013-09-16 23:19:00,
2013-09-16 19:24:00,69.8,62.6,30.12,SSE,149,0.0,1.0,78,0.00,,---,0.00,VWS V14.00,2013-09-16 23:24:00,
2013-09-16 19:29:00,69.4,62.6,30.12,SSE,150,0.0,1.0,79,0.00,,---,0.00,VWS V14.00,2013-09-16 23:29:00,
2013-09-16 19:34:00,69.1,62.7,30.12,SSE,150,0.0,1.0,80,0.00,,---,0.00,VWS V14.00,2013-09-16 23:34:00,
2013-09-16 19:39:00,68.8,62.4,30.12,SSE,156,0.0,1.0,80,0.00,,---,0.00,VWS V14.00,2013-09-16 23:39:00,
2013-09-16 19:44:00,68.4,62.3,30.12,SSE,156,0.0,1.0,81,0.00,,---,0.00,VWS V14.00,2013-09-16 23:44:00,
2013-09-16 19:49:00,68.1,62.1,30.12,SSE,156,0.0,1.0,81,0.00,,---,0.00,VWS V14.00,2013-09-16 23:49:00,
2013-09-16 19:54:00,67.8,61.8,30.12,SSE,156,0.0,1.0,81,0.00,,---,0.00,VWS V14.00,2013-09-16 23:54:00,
2013-09-16 19:59:00,67.5,61.5,30.12,SSE,156,0.0,1.0,81,0.00,,---,0.00,VWS V14.00,2013-09-16 23:59:00,
2013-09-16 20:04:00,67.2,61.5,30.12,SSE,156,0.0,1.0,82,0.00,,---,0.00,VWS V14.00,2013-09-17 00:04:00,
2013-09-16 20:09:00,66.8,61.1,30.12,SSE,156,0.0,0.0,82,0.00,,---,0.00,VWS V14.00,2013-09-17 00:09:00,
2013-09-16 20:14:00,66.6,60.9,30.12,SSE,156,0.0,0.0,82,0.00,,---,0.00,VWS V14.00,2013-09-17 00:14:00,
2013-09-16 20:19:00,66.4,60.7,30.13,SSE,156,0.0,0.0,82,0.00,,---,0.00,VWS V14.00,2013-09-17 00:19:00,
2013-09-16 20:24:00,66.2,60.9,30.13,SSE,156,0.0,0.0,83,0.00,,---,0.00,VWS V14.00,2013-09-17 00:24:00,
2013-09-16 20:29:00,66.0,60.7,30.13,SSE,156,0.0,0.0,83,0.00,,---,0.00,VWS V14.00,2013-09-17 00:29:00,
2013-09-16 20:34:00,65.8,60.8,30.13,SSE,156,0.0,1.0,84,0.00,,---,0.00,VWS V14.00,2013-09-17 00:34:00,
2013-09-16 20:39:00,65.7,60.7,30.13,SSE,156,0.0,0.0,84,0.00,,---,0.00,VWS V14.00,2013-09-17 00:39:00,
2013-09-16 20:44:00,65.6,60.6,30.13,SSE,156,0.0,0.0,84,0.00,,---,0.00,VWS V14.00,2013-09-17 00:44:00,
2013-09-16 20:49:00,65.4,60.8,30.13,SSE,156,0.0,1.0,85,0.00,,---,0.00,VWS V14.00,2013-09-17 00:49:00,
2013-09-16 20:54:00,65.3,60.7,30.13,SSE,156,0.0,1.0,85,0.00,,---,0.00,VWS V14.00,2013-09-17 00:54:00,
2013-09-16 20:59:00,65.3,60.7,30.13,SSE,156,0.0,1.0,85,0.00,,---,0.00,VWS V14.00,2013-09-17 00:59:00,
2013-09-16 21:04:00,65.2,60.9,30.14,SSE,156,0.0,1.0,86,0.00,,---,0.00,VWS V14.00,2013-09-17 01:04:00,
2013-09-16 21:09:00,65.1,60.8,30.14,SSE,156,0.0,0.0,86,0.00,,---,0.00,VWS V14.00,2013-09-17 01:09:00,
2013-09-16 21:14:00,65.0,60.7,30.14,SSE,156,0.0,0.0,86,0.00,,---,0.00,VWS V14.00,2013-09-17 01:14:00,
2013-09-16 21:19:00,64.9,60.9,30.14,SSE,156,0.0,0.0,87,0.00,,---,0.00,VWS V14.00,2013-09-17 01:19:00,
2013-09-16 21:24:00,64.9,60.9,30.15,SSE,159,0.0,1.0,87,0.00,,---,0.00,VWS V14.00,2013-09-17 01:24:00,
2013-09-16 21:29:00,64.8,60.8,30.14,SSE,159,0.0,1.0,87,0.00,,---,0.00,VWS V14.00,2013-09-17 01:29:00,
2013-09-16 21:34:00,64.7,60.8,30.14,SSE,159,0.0,1.0,87,0.00,,---,0.00,VWS V14.00,2013-09-17 01:34:00,
2013-09-16 21:39:00,64.8,60.8,30.14,SSE,159,0.0,0.0,87,0.00,,---,0.00,VWS V14.00,2013-09-17 01:39:00,
2013-09-16 21:44:00,64.7,61.1,30.14,SSE,159,0.0,0.0,88,0.00,,---,0.00,VWS V14.00,2013-09-17 01:44:00,
2013-09-16 21:49:00,64.6,60.7,30.14,SSE,159,0.0,0.0,87,0.00,,---,0.00,VWS V14.00,2013-09-17 01:49:00,
2013-09-16 21:54:00,64.5,60.5,30.14,SSE,159,1.0,1.0,87,0.00,,---,0.00,VWS V14.00,2013-09-17 01:54:00,
2013-09-16 21:59:00,64.4,60.5,30.14,SSE,159,0.0,1.0,87,0.00,,---,0.00,VWS V14.00,2013-09-17 01:59:00,
2013-09-16 22:04:00,64.4,60.8,30.14,SSE,159,0.0,1.0,88,0.00,,---,0.00,VWS V14.00,2013-09-17 02:04:00,
2013-09-16 22:09:00,64.3,60.7,30.13,SSE,159,0.0,0.0,88,0.00,,---,0.00,VWS V14.00,2013-09-17 02:09:00,
2013-09-16 22:14:00,64.3,60.7,30.14,SSE,159,0.0,0.0,88,0.00,,---,0.00,VWS V14.00,2013-09-17 02:14:00,
2013-09-16 22:19:00,64.3,60.7,30.14,SSE,159,0.0,0.0,88,0.00,,---,0.00,VWS V14.00,2013-09-17 02:19:00,
2013-09-16 22:24:00,64.3,60.7,30.14,SSE,159,0.0,0.0,88,0.00,,---,0.00,VWS V14.00,2013-09-17 02:24:00,
2013-09-16 22:29:00,64.3,60.7,30.14,SSE,159,0.0,0.0,88,0.00,,---,0.00,VWS V14.00,2013-09-17 02:29:00,
2013-09-16 22:34:00,64.3,60.7,30.14,SSE,159,0.0,0.0,88,0.00,,---,0.00,VWS V14.00,2013-09-17 02:34:00,
2013-09-16 22:39:00,64.3,60.7,30.14,SSE,159,0.0,0.0,88,0.00,,---,0.00,VWS V14.00,2013-09-17 02:39:00,
2013-09-16 22:44:00,64.3,60.7,30.15,SSE,159,0.0,0.0,88,0.00,,---,0.00,VWS V14.00,2013-09-17 02:44:00,
2013-09-16 22:49:00,64.2,60.6,30.15,SSE,159,0.0,0.0,88,0.00,,---,0.00,VWS V14.00,2013-09-17 02:49:00,
2013-09-16 22:54:00,64.2,60.9,30.15,SSE,159,0.0,0.0,89,0.00,,---,0.00,VWS V14.00,2013-09-17 02:54:00,
2013-09-16 22:59:00,64.2,60.9,30.15,SSE,159,0.0,0.0,89,0.00,,---,0.00,VWS V14.00,2013-09-17 02:59:00,
2013-09-16 23:04:00,64.2,60.6,30.15,SSE,159,0.0,0.0,88,0.00,,---,0.00,VWS V14.00,2013-09-17 03:04:00,
2013-09-16 23:09:00,64.1,60.5,30.13,SSE,159,0.0,0.0,88,0.00,,---,0.00,VWS V14.00,2013-09-17 03:09:00,
2013-09-16 23:14:00,64.1,60.2,30.13,SSE,159,0.0,0.0,87,0.00,,---,0.00,VWS V14.00,2013-09-17 03:14:00,
2013-09-16 23:19:00,64.1,60.5,30.13,SSE,159,0.0,0.0,88,0.00,,---,0.00,VWS V14.00,2013-09-17 03:19:00,
2013-09-16 23:24:00,64.0,60.4,30.13,SSE,159,0.0,0.0,88,0.00,,---,0.00,VWS V14.00,2013-09-17 03:24:00,
2013-09-16 23:29:00,63.9,60.3,30.13,SSE,159,0.0,0.0,88,0.00,,---,0.00,VWS V14.00,2013-09-17 03:29:00,
2013-09-16 23:34:00,63.9,60.3,30.13,SSE,159,0.0,0.0,88,0.00,,---,0.00,VWS V14.00,2013-09-17 03:34:00,
2013-09-16 23:39:00,63.8,60.5,30.13,SSE,159,0.0,0.0,89,0.00,,---,0.00,VWS V14.00,2013-09-17 03:39:00,
2013-09-16 23:44:00,63.7,60.4,30.13,SSE,159,0.0,0.0,89,0.00,,---,0.00,VWS V14.00,2013-09-17 03:44:00,
2013-09-16 23:49:00,63.6,60.0,30.13,SSE,159,0.0,0.0,88,0.00,,---,0.00,VWS V14.00,2013-09-17 03:49:00,
2013-09-16 23:54:00,63.5,60.2,30.13,SSE,159,0.0,0.0,89,0.00,,---,0.00,VWS V14.00,2013-09-17 03:54:00,
2013-09-16 23:59:00,63.4,60.1,30.14,SSE,159,0.0,0.0,89,0.00,,---,0.00,VWS V14.00,2013-09-17 03:59:00,